Time;durP1;ratioP1;P1;durP2;ratioP2;P2;SDS_P1;SDS_P2;PMS_P1;PMS_P2;Temp;Humidity;BMP_temperature;BMP_pressure;BME280_temperature;BME280_humidity;BME280_pressure;Samples;Min_cycle;Max_cycle;Signal;HPM_P1;HPM_P2
2021/12/08 00:01:28;;;;;;;25.73;23.80;;;;;;;1.81;92.83;100327.94;5036430;28;20486;-73
2021/12/08 00:03:56;;;;;;;2.70;2.50;;;;;;;1.84;93.21;100322.13;5036637;28;20462;-73
2021/12/08 00:06:23;;;;;;;0.50;0.40;;;;;;;1.86;94.57;100314.69;5036727;28;20431;-73
2021/12/08 00:09:01;;;;;;;1.37;1.37;;;;;;;1.88;93.97;100315.22;5036571;28;20849;-71
2021/12/08 00:14:13;;;;;;;0.40;0.30;;;;;;;1.82;93.05;100326.13;5036794;28;20446;-72
2021/12/08 00:16:39;;;;;;;0.40;0.30;;;;;;;1.80;93.57;100321.00;5036830;28;20450;-72
2021/12/08 00:19:07;;;;;;;2.63;2.53;;;;;;;1.72;93.50;100313.44;5036887;28;20443;-71
2021/12/08 00:21:34;;;;;;;0.40;0.20;;;;;;;1.75;93.72;100312.94;5036645;28;20487;-72
2021/12/08 00:24:00;;;;;;;0.40;0.30;;;;;;;1.74;93.48;100317.47;5036344;28;20467;-71
2021/12/08 00:26:27;;;;;;;0.40;0.30;;;;;;;1.81;93.42;100305.78;5036398;28;20458;-72
2021/12/08 00:28:53;;;;;;;0.40;0.30;;;;;;;1.77;92.90;100311.66;5036576;28;20447;-71
2021/12/08 00:31:20;;;;;;;0.40;0.30;;;;;;;1.71;92.73;100304.63;5036281;28;20447;-73
2021/12/08 00:33:47;;;;;;;0.40;0.30;;;;;;;1.64;92.38;100296.00;5036461;28;20466;-71
2021/12/08 00:36:16;;;;;;;0.40;0.30;;;;;;;1.57;92.78;100295.38;5036540;28;20435;-73
2021/12/08 00:38:43;;;;;;;0.40;0.30;;;;;;;1.58;93.41;100296.19;5036044;28;20458;-73
2021/12/08 00:41:10;;;;;;;0.50;0.47;;;;;;;1.67;93.21;100273.34;5035991;28;20940;-72
2021/12/08 00:43:36;;;;;;;0.40;0.30;;;;;;;1.60;92.99;100276.22;5036294;28;20467;-72
2021/12/08 00:46:03;;;;;;;0.40;0.30;;;;;;;1.60;93.74;100268.19;5036066;28;20447;-72
2021/12/08 00:48:29;;;;;;;2.97;2.77;;;;;;;1.62;93.98;100259.94;5036076;28;20451;-73
2021/12/08 00:50:56;;;;;;;0.50;0.50;;;;;;;1.59;93.48;100258.56;5016682;28;20444;-72
2021/12/08 00:53:24;;;;;;;0.40;0.30;;;;;;;1.53;93.43;100251.56;5033766;28;20479;-73
2021/12/08 00:55:51;;;;;;;0.40;0.30;;;;;;;1.49;93.79;100253.91;5035786;28;20455;-73
2021/12/08 00:58:17;;;;;;;0.40;0.30;;;;;;;1.44;93.74;100248.53;5032726;28;20967;-71
2021/12/08 01:00:47;;;;;;;0.40;0.30;;;;;;;1.54;93.69;100253.16;5035997;28;20454;-72
2021/12/08 01:03:14;;;;;;;0.40;0.30;;;;;;;1.52;93.46;100244.63;5035239;28;20996;-71
2021/12/08 01:05:44;;;;;;;0.40;0.30;;;;;;;1.41;94.20;100233.00;5035973;28;20501;-72
2021/12/08 01:08:11;;;;;;;0.40;0.30;;;;;;;1.54;93.99;100242.50;5035653;28;20450;-72
2021/12/08 01:10:41;;;;;;;0.40;0.30;;;;;;;1.60;94.26;100233.50;5035771;28;20443;-72
2021/12/08 01:13:10;;;;;;;0.40;0.30;;;;;;;1.59;93.89;100231.06;5035740;28;20466;-72
2021/12/08 01:15:39;;;;;;;0.40;0.30;;;;;;;1.55;94.34;100228.13;5035893;28;20454;-72
2021/12/08 01:18:05;;;;;;;0.80;0.80;;;;;;;1.56;94.66;100224.38;5035406;28;20928;-72
2021/12/08 01:20:32;;;;;;;0.40;0.30;;;;;;;1.54;94.57;100223.81;5035879;28;20427;-72
2021/12/08 01:22:58;;;;;;;0.40;0.27;;;;;;;1.57;94.61;100220.66;5035447;28;20483;-71
2021/12/08 01:25:25;;;;;;;0.40;0.30;;;;;;;1.51;94.30;100219.00;5035544;28;20439;-71
2021/12/08 01:27:53;;;;;;;0.40;0.30;;;;;;;1.56;94.39;100205.69;5035277;28;20443;-71
2021/12/08 01:30:19;;;;;;;1.17;1.17;;;;;;;1.62;94.20;100206.53;5035496;28;20470;-72
2021/12/08 01:32:46;;;;;;;0.40;0.30;;;;;;;1.65;94.24;100211.41;5035292;28;20467;-72
2021/12/08 01:35:12;;;;;;;0.40;0.30;;;;;;;1.64;94.34;100202.59;5035300;28;20816;-73
2021/12/08 01:37:39;;;;;;;3.60;3.40;;;;;;;1.66;94.81;100197.78;5035283;28;20443;-72
2021/12/08 01:40:09;;;;;;;0.40;0.30;;;;;;;1.63;93.53;100181.47;5035064;28;20448;-72
2021/12/08 01:42:42;;;;;;;0.40;0.30;;;;;;;1.63;94.02;100187.59;5034895;28;20495;-72
2021/12/08 01:47:55;;;;;;;0.40;0.30;;;;;;;1.55;93.85;100182.75;5034791;28;20439;-71
2021/12/08 01:50:22;;;;;;;0.40;0.30;;;;;;;1.55;93.97;100184.56;5035104;28;20483;-71
2021/12/08 01:52:48;;;;;;;0.40;0.20;;;;;;;1.53;93.50;100176.84;5034788;28;20475;-70
2021/12/08 01:55:15;;;;;;;0.40;0.23;;;;;;;1.55;93.90;100172.06;5035197;28;20477;-71
2021/12/08 01:57:41;;;;;;;0.40;0.30;;;;;;;1.51;93.85;100162.94;5035504;28;20868;-70
2021/12/08 02:00:15;;;;;;;0.40;0.30;;;;;;;1.53;94.41;100163.50;5034575;28;20848;-72
2021/12/08 02:02:43;;;;;;;10.70;10.03;;;;;;;1.48;93.88;100150.09;5034162;28;20487;-72
2021/12/08 02:05:09;;;;;;;16.60;12.40;;;;;;;1.42;94.02;100146.56;5034681;28;20814;-72
2021/12/08 02:07:36;;;;;;;0.50;0.40;;;;;;;1.43;93.87;100148.19;5034645;28;20439;-70
2021/12/08 02:10:03;;;;;;;1.03;1.03;;;;;;;1.34;93.71;100132.88;5034674;28;20450;-70
2021/12/08 02:12:33;;;;;;;0.40;0.30;;;;;;;1.31;94.50;100126.16;5034628;28;20451;-70
2021/12/08 02:15:00;;;;;;;0.40;0.30;;;;;;;1.33;95.00;100128.56;5033484;28;20956;-71
2021/12/08 02:17:27;;;;;;;0.60;0.60;;;;;;;1.33;94.99;100110.72;5034500;28;20513;-71
2021/12/08 02:19:54;;;;;;;0.40;0.30;;;;;;;1.32;94.03;100110.97;5034171;28;20439;-70
2021/12/08 02:22:22;;;;;;;0.40;0.30;;;;;;;1.34;94.19;100115.00;5034104;28;21014;-72
2021/12/08 02:24:54;;;;;;;1.80;1.70;;;;;;;1.35;94.10;100105.94;5038051;22;21000;-84
2021/12/08 02:27:21;;;;;;;0.90;0.90;;;;;;;1.31;94.35;100101.34;5017774;28;20467;-84
2021/12/08 02:29:53;;;;;;;0.40;0.30;;;;;;;1.34;94.26;100109.66;5017969;28;20448;-84
2021/12/08 02:46:35;;;;;;;0.40;0.30;;;;;;;1.38;94.03;100116.13;5044904;22;20510;-69
2021/12/08 02:46:45;;;;;;;0.40;0.30;;;;;;;1.47;94.10;100114.59;4997277;28;20508;-69
2021/12/08 02:49:11;;;;;;;0.50;0.40;;;;;;;1.48;93.58;100104.72;5053528;28;20431;-69
2021/12/08 02:51:38;;;;;;;0.70;0.70;;;;;;;1.45;93.20;100105.22;5053454;28;20844;-69
2021/12/08 02:54:06;;;;;;;1.63;1.57;;;;;;;1.48;93.56;100113.53;5053701;28;20824;-69
2021/12/08 02:56:33;;;;;;;0.60;0.60;;;;;;;1.47;92.76;100109.25;5053659;28;20441;-69
2021/12/08 02:59:00;;;;;;;0.50;0.50;;;;;;;1.47;92.79;100108.47;5053490;28;20448;-69
2021/12/08 03:01:27;;;;;;;0.40;0.30;;;;;;;1.42;92.95;100113.75;5053573;28;20454;-69
2021/12/08 03:03:54;;;;;;;0.40;0.30;;;;;;;1.40;92.89;100108.66;5053487;28;20474;-69
2021/12/08 03:06:21;;;;;;;0.40;0.30;;;;;;;1.48;93.04;100118.06;5053436;28;20462;-69
2021/12/08 03:08:48;;;;;;;0.40;0.30;;;;;;;1.43;93.09;100110.81;5053250;28;20973;-69
2021/12/08 03:11:18;;;;;;;0.40;0.30;;;;;;;1.42;93.53;100090.53;5053449;28;20461;-69
2021/12/08 03:14:00;;;;;;;0.40;0.30;;;;;;;1.46;94.36;100096.16;5053470;28;20812;-69
2021/12/08 03:16:27;;;;;;;0.40;0.30;;;;;;;1.46;93.51;100093.50;5053390;28;20481;-69
2021/12/08 03:18:54;;;;;;;0.40;0.20;;;;;;;1.43;92.80;100094.00;5053272;28;20473;-69
2021/12/08 03:21:26;;;;;;;0.40;0.30;;;;;;;1.45;92.89;100102.56;5053465;28;20855;-68
2021/12/08 03:24:05;;;;;;;0.40;0.40;;;;;;;1.38;93.04;100097.44;5053252;28;20466;-70
2021/12/08 03:26:34;;;;;;;0.40;0.30;;;;;;;1.36;93.68;100093.41;5052527;28;20458;-70
2021/12/08 03:29:05;;;;;;;0.40;0.30;;;;;;;1.32;93.40;100092.28;5052888;28;20480;-70
2021/12/08 03:31:38;;;;;;;0.40;0.30;;;;;;;1.33;92.44;100085.88;5053077;28;20454;-70
2021/12/08 03:34:05;;;;;;;0.40;0.30;;;;;;;1.25;93.02;100084.50;5053207;28;20549;-70
2021/12/08 03:36:31;;;;;;;0.40;0.20;;;;;;;1.32;93.75;100078.94;5053088;28;20445;-70
2021/12/08 03:38:58;;;;;;;0.50;0.47;;;;;;;1.27;92.99;100067.16;5053078;28;20446;-69
2021/12/08 03:41:26;;;;;;;0.40;0.20;;;;;;;1.31;93.11;100064.00;5053064;28;20446;-70
2021/12/08 03:43:54;;;;;;;0.50;0.50;;;;;;;1.30;92.90;100062.41;5053095;28;20524;-70
2021/12/08 03:46:20;;;;;;;1.43;1.33;;;;;;;1.25;93.21;100061.31;5052923;28;20461;-69
2021/12/08 03:48:48;;;;;;;22.37;20.80;;;;;;;1.17;93.70;100060.94;5052980;28;20469;-70
2021/12/08 03:51:15;;;;;;;0.40;0.30;;;;;;;1.22;94.22;100061.00;5052743;28;21038;-70
2021/12/08 03:53:43;;;;;;;0.40;0.20;;;;;;;1.25;93.74;100058.63;5052947;28;20434;-69
2021/12/08 03:56:10;;;;;;;0.50;0.50;;;;;;;1.26;93.47;100068.25;5052871;28;20458;-69
2021/12/08 03:58:36;;;;;;;0.40;0.30;;;;;;;1.31;93.57;100061.34;5052889;28;20445;-69
2021/12/08 04:01:05;;;;;;;0.40;0.30;;;;;;;1.29;93.45;100063.47;5052593;28;20442;-70
2021/12/08 04:03:33;;;;;;;19.50;13.20;;;;;;;1.30;93.37;100078.41;5052525;28;21085;-70
2021/12/08 04:06:04;;;;;;;0.40;0.30;;;;;;;1.25;93.84;100063.97;5052822;28;20511;-70
2021/12/08 04:08:39;;;;;;;0.40;0.20;;;;;;;1.28;94.05;100062.63;5052918;28;20440;-70
2021/12/08 04:11:07;;;;;;;0.60;0.60;;;;;;;1.31;93.70;100064.00;5053042;28;20430;-69
2021/12/08 04:13:38;;;;;;;0.40;0.40;;;;;;;1.36;93.55;100070.19;5052486;28;20822;-69
2021/12/08 04:16:08;;;;;;;0.40;0.30;;;;;;;1.35;93.85;100063.25;5053014;28;20477;-69
2021/12/08 04:18:35;;;;;;;0.40;0.30;;;;;;;1.38;93.81;100059.28;5052712;28;20960;-69
2021/12/08 04:21:04;;;;;;;2.87;2.67;;;;;;;1.46;93.57;100064.97;5052706;28;20499;-69
2021/12/08 04:23:35;;;;;;;2.20;2.00;;;;;;;1.52;93.16;100066.63;5052300;28;21007;-69
2021/12/08 04:26:03;;;;;;;0.40;0.30;;;;;;;1.54;92.61;100055.66;5052474;28;20565;-69
2021/12/08 04:28:33;;;;;;;0.40;0.30;;;;;;;1.49;93.16;100058.31;5052555;28;20564;-69
2021/12/08 04:31:02;;;;;;;0.40;0.20;;;;;;;1.45;92.46;100065.19;5052493;28;20442;-69
2021/12/08 04:33:32;;;;;;;0.40;0.30;;;;;;;1.42;92.51;100068.41;5052623;28;20423;-69
2021/12/08 04:36:00;;;;;;;0.50;0.50;;;;;;;1.42;92.13;100071.88;5052558;28;20472;-69
2021/12/08 04:38:35;;;;;;;0.40;0.20;;;;;;;1.41;92.71;100067.56;5054762;28;20445;-69
2021/12/08 04:41:07;;;;;;;0.40;0.27;;;;;;;1.44;92.40;100071.59;5056303;28;20544;-69
2021/12/08 04:43:47;;;;;;;0.40;0.30;;;;;;;1.37;92.94;100074.47;5055844;28;21001;-70
2021/12/08 04:46:28;;;;;;;0.40;0.30;;;;;;;1.33;92.38;100070.72;5056154;28;20466;-69
2021/12/08 04:49:17;;;;;;;0.40;0.30;;;;;;;1.29;93.16;100063.47;5056132;28;20430;-69
2021/12/08 04:51:52;;;;;;;0.40;0.30;;;;;;;1.30;93.31;100071.22;5056055;28;20500;-69
2021/12/08 05:00:27;;;;;;;0.40;0.30;;;;;;;1.12;93.96;100083.03;5055451;28;20477;-70
2021/12/08 05:03:22;;;;;;;0.40;0.30;;;;;;;1.20;93.61;100065.78;5055820;28;20477;-69
2021/12/08 05:06:04;;;;;;;0.40;0.27;;;;;;;1.17;93.75;100069.75;5055744;28;20553;-69
2021/12/08 05:08:41;;;;;;;0.40;0.30;;;;;;;1.33;93.46;100075.22;5055801;28;20446;-69
2021/12/08 05:11:10;;;;;;;0.40;0.30;;;;;;;1.30;93.23;100076.53;5055728;28;20520;-69
2021/12/08 05:13:37;;;;;;;0.40;0.30;;;;;;;1.22;92.64;100075.13;5055699;28;20441;-69
2021/12/08 05:16:04;;;;;;;0.50;0.30;;;;;;;1.24;93.46;100061.56;5055282;28;20979;-69
2021/12/08 05:18:34;;;;;;;0.40;0.30;;;;;;;1.26;93.55;100073.56;5055550;28;20442;-69
2021/12/08 05:21:06;;;;;;;0.40;0.30;;;;;;;1.35;93.48;100059.78;5055507;28;20438;-69
2021/12/08 05:23:38;;;;;;;0.40;0.30;;;;;;;1.41;93.37;100058.75;5055382;28;20473;-69
2021/12/08 05:26:08;;;;;;;0.40;0.40;;;;;;;1.37;93.46;100053.13;5055370;28;20473;-69
2021/12/08 05:28:35;;;;;;;0.93;0.93;;;;;;;1.40;93.20;100060.63;5055087;28;20427;-69
2021/12/08 05:31:09;;;;;;;0.40;0.30;;;;;;;1.36;93.23;100058.72;5055276;28;20434;-69
2021/12/08 05:33:35;;;;;;;9.37;8.80;;;;;;;1.38;92.93;100061.97;5055235;28;20423;-68
2021/12/08 05:36:04;;;;;;;32.30;29.03;;;;;;;1.35;93.39;100057.91;5055061;28;20465;-68
2021/12/08 05:38:31;;;;;;;4.77;4.53;;;;;;;1.37;93.55;100060.31;5054882;28;20441;-68
2021/12/08 05:41:01;;;;;;;0.40;0.30;;;;;;;1.39;93.72;100052.88;5055114;28;20866;-69
2021/12/08 05:43:28;;;;;;;12.23;11.47;;;;;;;1.39;93.75;100055.56;5055178;28;20533;-70
2021/12/08 05:45:55;;;;;;;0.40;0.30;;;;;;;1.43;93.20;100056.66;5054524;28;20971;-69
2021/12/08 05:48:22;;;;;;;3.37;3.20;;;;;;;1.48;93.25;100056.69;5054798;28;20449;-69
2021/12/08 05:50:53;;;;;;;1.80;1.70;;;;;;;1.55;92.51;100049.28;5054124;28;20479;-70
2021/12/08 05:53:21;;;;;;;0.40;0.30;;;;;;;1.47;91.86;100049.75;5054829;28;20438;-70
2021/12/08 05:55:49;;;;;;;0.40;0.20;;;;;;;1.46;91.36;100059.63;5054688;28;20463;-69
2021/12/08 05:58:18;;;;;;;13.17;11.77;;;;;;;1.42;91.32;100057.72;5054763;28;20441;-69
2021/12/08 06:00:48;;;;;;;0.40;0.30;;;;;;;1.38;90.81;100060.09;5054890;28;20456;-68
2021/12/08 06:03:16;;;;;;;0.50;0.40;;;;;;;1.42;91.53;100065.72;5054606;28;20482;-69
2021/12/08 06:05:46;;;;;;;0.50;0.30;;;;;;;1.45;91.10;100062.53;5054603;28;20470;-69
2021/12/08 06:08:13;;;;;;;0.40;0.30;;;;;;;1.37;91.34;100063.00;5054622;28;20481;-70
2021/12/08 06:10:41;;;;;;;1.07;1.07;;;;;;;1.35;91.86;100065.91;5054244;28;20853;-70
2021/12/08 06:13:11;;;;;;;0.40;0.30;;;;;;;1.37;91.74;100071.00;5054541;28;20496;-69
2021/12/08 06:15:40;;;;;;;0.40;0.30;;;;;;;1.30;92.22;100060.53;5054636;28;20508;-69
2021/12/08 06:18:07;;;;;;;0.40;0.30;;;;;;;1.25;91.95;100063.97;5054411;28;20449;-69
2021/12/08 06:20:34;;;;;;;0.40;0.40;;;;;;;1.24;92.05;100064.22;5054300;28;20443;-69
2021/12/08 06:23:01;;;;;;;0.40;0.30;;;;;;;1.30;91.94;100071.22;5054241;28;20489;-69
2021/12/08 06:25:28;;;;;;;5.50;5.20;;;;;;;1.31;91.71;100066.69;5054399;28;20462;-69
2021/12/08 06:27:57;;;;;;;0.40;0.30;;;;;;;1.35;91.61;100065.13;5054136;28;20496;-69
2021/12/08 06:30:28;;;;;;;0.40;0.20;;;;;;;1.30;91.98;100065.88;5054097;28;20469;-69
2021/12/08 06:32:55;;;;;;;2.10;2.00;;;;;;;1.27;91.54;100075.19;5053719;28;20946;-69
2021/12/08 06:35:31;;;;;;;0.40;0.30;;;;;;;1.24;92.19;100070.38;5053971;28;20462;-69
2021/12/08 06:37:58;;;;;;;0.40;0.30;;;;;;;1.23;91.87;100075.94;5053896;28;20430;-69
2021/12/08 06:40:29;;;;;;;0.40;0.30;;;;;;;1.23;91.38;100074.06;5053927;28;20517;-69
2021/12/08 06:43:05;;;;;;;0.67;0.67;;;;;;;1.17;91.92;100074.28;5053812;28;20469;-69
2021/12/08 06:45:34;;;;;;;0.40;0.30;;;;;;;1.18;92.30;100068.69;5053729;28;21032;-69
2021/12/08 06:48:05;;;;;;;0.40;0.30;;;;;;;1.17;92.83;100077.75;5053862;28;20446;-69
2021/12/08 06:50:36;;;;;;;0.40;0.30;;;;;;;1.23;92.65;100070.59;5053529;28;20904;-70
2021/12/08 06:53:04;;;;;;;0.40;0.30;;;;;;;1.28;92.35;100073.31;5053717;28;20454;-69
2021/12/08 06:55:34;;;;;;;0.40;0.30;;;;;;;1.29;92.62;100076.81;5053604;28;20484;-69
2021/12/08 06:58:06;;;;;;;1.60;1.50;;;;;;;1.33;92.21;100067.22;5054022;28;20438;-67
2021/12/08 07:00:48;;;;;;;0.40;0.30;;;;;;;1.34;92.43;100066.97;5053441;28;20438;-68
2021/12/08 07:03:32;;;;;;;0.40;0.30;;;;;;;1.37;92.15;100066.47;5052962;28;20567;-69
2021/12/08 07:06:12;;;;;;;0.40;0.20;;;;;;;1.33;91.88;100059.22;5053265;28;20474;-69
2021/12/08 07:08:45;;;;;;;0.40;0.30;;;;;;;1.37;92.76;100061.13;5053495;28;20470;-68
2021/12/08 07:11:15;;;;;;;0.40;0.20;;;;;;;1.41;92.43;100064.91;5053541;28;20438;-68
2021/12/08 07:13:44;;;;;;;0.73;0.70;;;;;;;1.45;92.45;100062.53;5053406;28;20438;-68
2021/12/08 07:16:13;;;;;;;0.40;0.30;;;;;;;1.48;92.20;100056.69;5053324;28;20511;-68
2021/12/08 07:18:49;;;;;;;0.50;0.40;;;;;;;1.49;91.50;100059.09;5053093;28;20959;-69
2021/12/08 07:21:16;;;;;;;2.73;2.63;;;;;;;1.56;91.27;100066.13;5053364;28;20444;-68
2021/12/08 07:23:46;;;;;;;0.40;0.30;;;;;;;1.51;91.25;100061.53;5052937;28;20493;-68
2021/12/08 07:26:16;;;;;;;2.00;1.90;;;;;;;1.51;91.45;100061.53;5053467;28;20548;-68
2021/12/08 07:28:46;;;;;;;0.40;0.30;;;;;;;1.53;90.14;100059.41;5053202;28;20886;-68
2021/12/08 07:31:18;;;;;;;0.40;0.30;;;;;;;1.54;89.85;100061.00;5053106;28;20454;-68
2021/12/08 07:33:45;;;;;;;0.53;0.53;;;;;;;1.50;89.65;100059.91;5053131;28;20446;-68
2021/12/08 07:36:16;;;;;;;0.40;0.30;;;;;;;1.45;89.78;100054.53;5053029;28;20466;-68
2021/12/08 07:38:45;;;;;;;0.40;0.30;;;;;;;1.44;89.80;100058.25;5053131;28;20513;-69
2021/12/08 07:41:15;;;;;;;0.40;0.30;;;;;;;1.43;90.66;100054.00;5052932;28;20936;-69
2021/12/08 07:43:50;;;;;;;0.40;0.30;;;;;;;1.44;89.66;100044.91;5053093;28;20462;-69
2021/12/08 07:46:19;;;;;;;0.40;0.30;;;;;;;1.51;90.28;100042.84;5052997;28;20465;-69
2021/12/08 07:48:52;;;;;;;1.07;1.07;;;;;;;1.49;90.05;100047.63;5053015;28;20442;-70
2021/12/08 07:51:21;;;;;;;0.40;0.30;;;;;;;1.44;89.96;100039.59;5053054;28;20426;-70
2021/12/08 07:53:48;;;;;;;0.40;0.20;;;;;;;1.45;90.75;100039.31;5052974;28;20465;-73
2021/12/08 07:56:19;;;;;;;1.67;1.57;;;;;;;1.48;90.82;100043.34;5052868;28;20572;-73
2021/12/08 07:58:50;;;;;;;0.40;0.30;;;;;;;1.51;89.62;100034.84;5052959;28;20434;-72
2021/12/08 08:01:20;;;;;;;0.40;0.30;;;;;;;1.55;90.01;100029.78;5052545;28;20449;-71
2021/12/08 08:03:47;;;;;;;0.40;0.30;;;;;;;1.56;90.19;100034.88;5052868;28;20588;-72
2021/12/08 08:06:20;;;;;;;11.30;4.10;;;;;;;1.57;89.99;100036.50;5052432;28;20983;-71
2021/12/08 08:08:47;;;;;;;11.47;10.83;;;;;;;1.59;89.79;100026.34;5052928;28;20517;-72
2021/12/08 08:11:18;;;;;;;0.40;0.30;;;;;;;1.64;89.68;100028.25;5052835;28;20442;-71
2021/12/08 08:13:45;;;;;;;0.40;0.30;;;;;;;1.63;89.74;100026.66;5055409;28;20458;-71
2021/12/08 08:16:16;;;;;;;0.50;0.50;;;;;;;1.63;89.85;100032.78;5056704;28;20469;-71
2021/12/08 08:18:48;;;;;;;0.40;0.20;;;;;;;1.66;88.98;100028.81;5056775;28;20429;-71
2021/12/08 08:21:18;;;;;;;0.60;0.60;;;;;;;1.53;89.15;100032.72;5056669;28;20435;-71
2021/12/08 08:23:46;;;;;;;1.03;0.97;;;;;;;1.55;89.77;100035.94;5056540;28;20568;-71
2021/12/08 08:26:14;;;;;;;0.40;0.20;;;;;;;1.57;89.34;100033.81;5056490;28;20877;-71
2021/12/08 08:28:44;;;;;;;0.50;0.50;;;;;;;1.62;89.63;100039.19;5056167;28;20470;-71
2021/12/08 08:31:19;;;;;;;0.40;0.30;;;;;;;1.71;89.51;100034.19;5056392;28;20470;-72
2021/12/08 08:33:48;;;;;;;0.40;0.40;;;;;;;1.71;88.23;100034.19;5056135;28;20433;-71
2021/12/08 08:36:17;;;;;;;2.17;2.07;;;;;;;1.75;89.69;100030.75;5056292;28;20553;-71
2021/12/08 08:38:50;;;;;;;0.40;0.30;;;;;;;1.76;89.78;100026.22;5056535;28;20453;-71
2021/12/08 08:41:21;;;;;;;0.40;0.30;;;;;;;1.72;89.62;100025.91;5056303;28;20426;-72
2021/12/08 08:43:49;;;;;;;0.50;0.50;;;;;;;1.79;90.00;100024.91;5056175;28;20496;-71
2021/12/08 08:46:20;;;;;;;0.40;0.20;;;;;;;1.85;89.77;100029.22;5057407;28;20470;-72
2021/12/08 08:48:52;;;;;;;0.40;0.30;;;;;;;1.83;89.49;100021.47;5056155;28;20795;-72
2021/12/08 08:51:22;;;;;;;0.40;0.30;;;;;;;1.82;89.27;100019.06;5056105;28;20462;-71
2021/12/08 08:53:52;;;;;;;1.80;1.70;;;;;;;1.87;89.72;100021.75;5055971;28;20430;-72
2021/12/08 08:56:23;;;;;;;0.40;0.30;;;;;;;1.95;88.59;100013.28;5055585;28;20979;-72
2021/12/08 08:58:54;;;;;;;0.40;0.30;;;;;;;1.92;89.09;100013.78;5055695;28;20908;-72
2021/12/08 09:01:25;;;;;;;5.17;4.90;;;;;;;1.97;89.45;100003.13;5055637;28;20978;-72
2021/12/08 09:03:56;;;;;;;2.63;2.53;;;;;;;2.00;89.02;99994.59;5056131;28;20557;-72
2021/12/08 09:06:26;;;;;;;0.40;0.30;;;;;;;2.05;88.59;100002.63;5055773;28;20481;-72
2021/12/08 09:08:53;;;;;;;0.40;0.20;;;;;;;2.08;88.74;99995.97;5055724;28;20446;-72
2021/12/08 09:11:24;;;;;;;0.40;0.30;;;;;;;2.00;88.27;100005.28;5056031;28;20449;-72
2021/12/08 09:13:53;;;;;;;10.70;9.87;;;;;;;1.95;88.64;100005.25;5055668;28;20426;-72
2021/12/08 09:16:25;;;;;;;0.50;0.30;;;;;;;2.02;87.97;99997.81;5055555;28;20469;-72
2021/12/08 09:19:00;;;;;;;0.40;0.30;;;;;;;2.06;88.00;100008.78;5055571;28;20446;-72
2021/12/08 09:21:31;;;;;;;0.40;0.30;;;;;;;1.98;88.12;100007.41;5055366;28;20457;-72
2021/12/08 09:24:04;;;;;;;0.40;0.20;;;;;;;2.05;88.53;100001.84;5055328;28;20492;-71
2021/12/08 09:26:34;;;;;;;0.40;0.30;;;;;;;1.95;89.34;100007.94;5055376;28;20466;-72
2021/12/08 09:29:07;;;;;;;0.40;0.30;;;;;;;2.08;89.11;100007.47;5055362;28;20839;-72
2021/12/08 09:31:37;;;;;;;0.40;0.20;;;;;;;2.06;88.27;100004.25;5055218;28;20450;-72
2021/12/08 09:34:12;;;;;;;0.40;0.30;;;;;;;2.12;88.05;100007.72;5055567;28;20423;-72
2021/12/08 09:36:45;;;;;;;0.40;0.30;;;;;;;2.13;87.76;100015.50;5055464;28;20426;-72
2021/12/08 09:39:21;;;;;;;0.40;0.20;;;;;;;2.21;87.17;100000.84;5055248;28;20439;-72
2021/12/08 09:41:50;;;;;;;0.40;0.30;;;;;;;2.28;87.05;100010.22;5055181;28;20436;-69
2021/12/08 09:44:19;;;;;;;0.40;0.30;;;;;;;2.35;86.85;100011.88;5054954;28;20477;-69
2021/12/08 09:46:50;;;;;;;0.40;0.30;;;;;;;2.42;86.41;100001.75;5055066;28;20442;-73
2021/12/08 09:49:19;;;;;;;1.57;1.47;;;;;;;2.35;85.67;99998.53;5054991;28;20476;-67
2021/12/08 09:51:46;;;;;;;5.60;3.40;;;;;;;2.27;86.32;100005.16;5054880;28;20454;-68
2021/12/08 09:54:12;;;;;;;0.40;0.30;;;;;;;2.31;86.46;100006.25;5054835;28;20434;-71
2021/12/08 09:56:40;;;;;;;0.40;0.30;;;;;;;2.32;86.29;100013.19;5054828;28;20817;-72
2021/12/08 09:59:09;;;;;;;0.40;0.30;;;;;;;2.36;86.45;99997.44;5054154;28;20947;-72
2021/12/08 10:01:38;;;;;;;0.40;0.30;;;;;;;2.38;86.16;100000.66;5054704;28;20435;-72
2021/12/08 10:04:06;;;;;;;0.40;0.20;;;;;;;2.37;85.84;99991.84;5054641;28;20446;-72
2021/12/08 10:06:33;;;;;;;0.40;0.30;;;;;;;2.41;85.57;100005.47;5054343;28;20465;-72
2021/12/08 10:08:59;;;;;;;0.40;0.30;;;;;;;2.33;85.84;99995.28;5054598;28;20446;-71
2021/12/08 10:11:28;;;;;;;0.40;0.30;;;;;;;2.38;86.11;99981.94;5054222;28;20942;-72
2021/12/08 10:13:55;;;;;;;0.40;0.20;;;;;;;2.38;86.17;99971.25;5054737;28;20442;-72
2021/12/08 10:16:22;;;;;;;0.40;0.30;;;;;;;2.37;86.39;99959.75;5054631;28;20632;-74
2021/12/08 10:18:49;;;;;;;2.00;1.90;;;;;;;2.37;86.04;99965.09;5054128;28;20947;-72
2021/12/08 10:21:19;;;;;;;1.53;1.43;;;;;;;2.30;86.22;99959.19;5054297;28;20454;-72
2021/12/08 10:23:48;;;;;;;0.40;0.30;;;;;;;2.30;86.56;99959.19;5054630;28;20438;-71
2021/12/08 10:26:18;;;;;;;0.40;0.20;;;;;;;2.34;87.45;99954.13;5054148;28;20490;-72
2021/12/08 10:28:47;;;;;;;0.40;0.20;;;;;;;2.33;86.40;99960.56;5054151;28;20423;-71
2021/12/08 10:31:17;;;;;;;0.40;0.30;;;;;;;2.39;86.60;99972.84;5053651;28;20860;-71
2021/12/08 10:33:55;;;;;;;0.40;0.30;;;;;;;2.52;86.31;99972.38;5054166;28;20804;-72
2021/12/08 10:39:28;;;;;;;0.40;0.30;;;;;;;2.72;85.41;99987.69;5006155;28;20856;-71
2021/12/08 10:42:08;;;;;;;0.40;0.20;;;;;;;2.85;84.46;99983.69;5054077;28;20442;-72
2021/12/08 10:44:43;;;;;;;0.40;0.20;;;;;;;2.84;84.47;99974.88;5053532;28;21014;-72
2021/12/08 10:47:11;;;;;;;1.10;1.07;;;;;;;2.85;84.27;99975.66;5054166;28;20461;-72
2021/12/08 10:55:18;;;;;;;0.50;0.40;;;;;;;2.84;83.76;99936.63;5053476;28;20442;-70
2021/12/08 10:57:47;;;;;;;0.40;0.27;;;;;;;2.86;84.60;99929.94;5053715;28;20478;-72
2021/12/08 11:00:18;;;;;;;0.40;0.30;;;;;;;2.93;84.61;99940.38;5053650;28;20446;-72
2021/12/08 11:02:48;;;;;;;0.40;0.30;;;;;;;2.85;83.59;99946.25;5052982;28;20947;-72
2021/12/08 11:05:41;;;;;;;0.50;0.40;;;;;;;2.81;84.17;99934.47;5053399;28;20543;-72
2021/12/08 11:08:13;;;;;;;0.40;0.30;;;;;;;2.85;83.66;99941.72;5034602;28;20454;-72
2021/12/08 11:10:43;;;;;;;0.40;0.20;;;;;;;2.80;83.76;99952.41;5053503;28;20431;-72
2021/12/08 11:13:11;;;;;;;0.40;0.40;;;;;;;2.83;83.74;99956.41;5053675;28;20449;-68
2021/12/08 11:15:39;;;;;;;0.70;0.63;;;;;;;2.83;83.97;99943.81;5053377;28;20516;-68
2021/12/08 11:18:15;;;;;;;1.67;1.57;;;;;;;2.80;83.47;99948.94;5053366;28;20474;-69
2021/12/08 11:20:44;;;;;;;6.73;6.30;;;;;;;2.70;83.65;99947.00;5053571;28;20426;-70
2021/12/08 11:23:15;;;;;;;0.40;0.30;;;;;;;2.57;84.21;99947.50;5053281;28;20457;-72
2021/12/08 11:25:45;;;;;;;2.10;2.00;;;;;;;2.53;84.38;99929.34;5053207;28;20492;-71
2021/12/08 11:28:19;;;;;;;0.40;0.30;;;;;;;2.59;84.34;99924.81;5052923;28;20537;-74
2021/12/08 11:30:46;;;;;;;0.40;0.30;;;;;;;2.67;84.39;99920.81;5053104;28;20491;-72
2021/12/08 11:33:15;;;;;;;0.40;0.30;;;;;;;2.69;84.54;99919.47;5052716;28;20457;-72
2021/12/08 11:35:42;;;;;;;0.40;0.30;;;;;;;2.70;84.23;99922.94;5053092;28;20462;-73
2021/12/08 11:38:09;;;;;;;1.90;1.80;;;;;;;2.60;84.79;99915.72;5053095;28;20461;-72
2021/12/08 11:40:37;;;;;;;4.30;4.03;;;;;;;2.62;84.97;99910.94;5053123;28;20446;-72
2021/12/08 11:43:04;;;;;;;0.40;0.30;;;;;;;2.59;84.58;99916.00;5052913;28;20438;-72
2021/12/08 11:45:39;;;;;;;0.40;0.30;;;;;;;2.54;84.56;99930.16;5053015;28;20540;-72
2021/12/08 11:48:21;;;;;;;0.40;0.30;;;;;;;2.63;83.98;99931.25;5055041;28;20468;-73
2021/12/08 11:50:48;;;;;;;0.40;0.30;;;;;;;2.57;84.63;99921.63;5057432;28;20461;-73
2021/12/08 11:53:21;;;;;;;0.60;0.60;;;;;;;2.44;84.36;99922.13;5057240;28;20446;-73
2021/12/08 11:55:49;;;;;;;0.43;0.40;;;;;;;2.51;84.85;99938.69;5056804;28;20465;-73
2021/12/08 11:58:15;;;;;;;9.47;8.93;;;;;;;2.61;85.23;99941.41;5057208;28;20449;-73
2021/12/08 12:00:45;;;;;;;2.77;2.57;;;;;;;2.64;84.27;99946.22;5057203;28;20450;-73
2021/12/08 12:03:14;;;;;;;0.40;0.30;;;;;;;2.63;84.41;99949.16;5057102;28;20480;-73
2021/12/08 12:05:43;;;;;;;0.40;0.27;;;;;;;2.68;84.53;99957.19;5056461;28;20849;-71
2021/12/08 12:08:14;;;;;;;0.40;0.20;;;;;;;2.73;83.85;99949.97;5056766;28;20446;-73
2021/12/08 12:10:42;;;;;;;0.50;0.50;;;;;;;2.83;84.00;99954.53;5056910;28;20461;-73
2021/12/08 12:13:10;;;;;;;0.40;0.30;;;;;;;2.82;84.46;99957.47;5056746;28;20805;-72
2021/12/08 12:15:40;;;;;;;0.40;0.20;;;;;;;2.83;83.79;99949.16;5056404;28;20466;-73
2021/12/08 12:18:08;;;;;;;0.40;0.20;;;;;;;2.85;83.69;99954.28;5056807;28;20454;-71